This is the latest recevied weather packets stored in our database for station/object SP2JGY-2. If no packets are shown the sender has not sent any weather packets the latest 10 day(s).
| Time | Temp. | Humidity | Pressure | Rain* | Wind** | Luminosity | Snow |
|---|---|---|---|---|---|---|---|
| 1777351123 | 0.56° C | 76% | 1026.9 hPa | - | - | - | - |
| 1777350223 | 0° C | 76% | 1026.9 hPa | - | - | - | - |
| 1777349323 | -0.56° C | 78% | 1026.8 hPa | - | - | - | - |
| 1777348422 | -1.11° C | 78% | 1026.8 hPa | - | - | - | - |
| 1777347522 | -1.67° C | 77% | 1026.9 hPa | - | - | - | - |
| 1777346622 | -1.67° C | 75% | 1026.8 hPa | - | - | - | - |
| 1777345722 | -1.67° C | 76% | 1026.7 hPa | - | - | - | - |
| 1777343922 | -1.67° C | 76% | 1026.4 hPa | - | - | - | - |
| 1777342121 | -0.56° C | 76% | 1026.4 hPa | - | - | - | - |
| 1777341221 | -1.67° C | 77% | 1026.4 hPa | - | - | - | - |
| 1777340321 | -0.56° C | 75% | 1026.2 hPa | - | - | - | - |
| 1777339421 | -0.56° C | 75% | 1026.2 hPa | - | - | - | - |
| 1777338521 | -1.11° C | 75% | 1026.2 hPa | - | - | - | - |
| 1777336720 | -0.56° C | 71% | 1026.1 hPa | - | - | - | - |
| 1777333120 | 0° C | 70% | 1025.9 hPa | - | - | - | - |
| 1777312416 | 6.67° C | 34% | 1023.8 hPa | - | - | - | - |
| 1777311516 | 7.22° C | 31% | 1023.8 hPa | - | - | - | - |
| 1777306115 | 21.11° C | 14% | 1023.1 hPa | - | - | - | - |
| 1777304314 | 21.11° C | 13% | 1023.1 hPa | - | - | - | - |
| 1777300714 | 20° C | 15% | 1022.8 hPa | - | - | - | - |
| 1777299814 | 15.56° C | 21% | 1022.9 hPa | - | - | - | - |
| 1777295313 | 12.22° C | 25% | 1022.9 hPa | - | - | - | - |
| 1777294413 | 12.22° C | 26% | 1022.9 hPa | - | - | - | - |
| 1777292612 | 12.22° C | 26% | 1022.8 hPa | - | - | - | - |
| 1777291712 | 12.22° C | 26% | 1022.7 hPa | - | - | - | - |
* Rain since midnight (hover to see other rain measurements)
** Current wind speed in m/s (hover to see current wind gust speed)